White City, OR

4:52 AM PDT on August 31, 2014 (GMT -0700)
Siskiyou County | Change Station
CLOSE
Current Station
Airport
Location: Montague,
Elevation: 2648 ft
Nearby Weather Stations

Elev 2648 ft 41.78 °N, 122.47 °W | Updated 59 minutes ago

Clear
Clear
56 °F
Feels Like 56 °F
N
10
Wind Variable Wind from North

Today
High -- | Low -- °F
--% Chance of Precip.
Yesterday
High -- | Low -- °F
Precip. -- in
6:35 AM 7:46 PM
Waxing Crescent, 30% visible
Pressure 30.01 in
Visibility 10.0 miles
Clouds Clear
Dew Point 47 °F
Humidity 72%
Rainfall 0.00 in
Snow Depth Not available.
UV 0 out of 12
Pollen 5.30 out of 12
Air Quality Not available.
Flu Activity Not available.
METAR KSIY 311053Z AUTO 35009KT 10SM CLR 13/08 A3003 RMK AO2 SLP160 T01330083

More Conditions Fewer Conditions

Pressure 30.01 in
Visibility 10.0 miles
Clouds Clear
Dew Point 47 °F
Humidity 72%
Rainfall 0.00 in
Snow Depth Not available.
UV 0 out of 12
Pollen 5.30 out of 12
Air Quality Not available.
Flu Activity Not available.
METAR KSIY 311053Z AUTO 35009KT 10SM CLR 13/08 A3003 RMK AO2 SLP160 T01330083

More Conditions Fewer Conditions

10-Day Weather Forecast

Almanac

Astronomy

Aug. 31, 2014 Rise Set
Actual Time 6:35 AM PDT 7:46 PM PDT
Civil Twilight 6:06 AM PDT 8:15 PM PDT
Nautical Twilight 5:31 AM PDT 8:50 PM PDT
Astronomical Twilight 4:55 AM PDT 9:26 PM PDT
Moon 12:34 PM PDT 10:58 PM PDT
Length of Visible Light 14h 09m
Length of Day
13h 11m
Tomorrow will be 2m 44s shorter.
Waxing Crescent, 30% of the Moon is Illuminated
Today
Waxing Crescent
Sep 2
First Quarter
Sep 8
Full
Sep 15
Last Quarter
Sep 24
New

Today's Extremes

State Highs State Lows

Community

WunderPhotos

Upload Photos

1,748,848 photos uploaded!

Nearby

Snow Depth

Station Depth Elevation
Fish Lake 0 in 4665 ft
Big Red Mountain 0 in 6250 ft
Billie Creek Divide 0 in 5300 ft
Fourmile Lake 2 in 6000 ft
Cold Springs Camp 0 in 6100 ft

Earthquake Activity

City Distance Mag. Time & Date
No recent earthquake activity has been reported nearby.
Minimum magnitude displayed is 2.5.

Coastal Water Temperatures

Place Temperature
No Stations Reporting

Nearby Weather Stations